createdAt,value
2023-01-08T00:02:19.588Z,10.34
2023-01-08T00:04:47.027Z,10.52
2023-01-08T00:07:14.250Z,10.64
2023-01-08T00:09:41.454Z,10.62
2023-01-08T00:12:08.935Z,10.57
2023-01-08T00:14:36.126Z,10.15
2023-01-08T00:17:04.491Z,10.27
2023-01-08T00:19:31.949Z,9.96
2023-01-08T00:21:59.579Z,9.84
2023-01-08T00:24:26.765Z,10.13
2023-01-08T00:26:54.308Z,10.17
2023-01-08T00:29:21.486Z,9.66
2023-01-08T00:31:48.620Z,10.11
2023-01-08T00:34:16.086Z,10.23
2023-01-08T00:36:43.408Z,10.11
2023-01-08T00:39:10.625Z,10.41
2023-01-08T00:41:38.119Z,10.03
2023-01-08T00:44:05.533Z,10.16
2023-01-08T00:46:32.733Z,10.39
2023-01-08T00:49:00.170Z,10.34
2023-01-08T00:51:27.578Z,10.04
2023-01-08T00:53:54.759Z,10.46
2023-01-08T00:56:22.233Z,9.82
2023-01-08T00:58:49.420Z,8.86
2023-01-08T01:01:16.909Z,9.06
2023-01-08T01:03:45.030Z,8.56
2023-01-08T01:06:12.733Z,10.20
2023-01-08T01:08:40.694Z,10.49
2023-01-08T01:11:13.347Z,10.45
2023-01-08T01:13:40.558Z,10.33
2023-01-08T01:16:08.407Z,10.06
2023-01-08T01:18:35.592Z,10.36
2023-01-08T01:21:02.798Z,8.80
2023-01-08T01:23:30.290Z,10.26
2023-01-08T01:25:57.492Z,9.46
2023-01-08T01:28:24.849Z,9.90
2023-01-08T01:30:56.093Z,8.85
2023-01-08T01:33:23.563Z,9.62
2023-01-08T01:35:58.908Z,9.68
2023-01-08T01:38:26.404Z,9.42
2023-01-08T01:40:53.587Z,9.65
2023-01-08T01:43:40.175Z,9.32
2023-01-08T01:46:16.973Z,9.28
2023-01-08T01:48:44.213Z,9.50
2023-01-08T01:51:11.662Z,10.01
2023-01-08T01:53:38.885Z,8.98
2023-01-08T01:56:06.224Z,9.81
2023-01-08T01:58:33.875Z,9.30
2023-01-08T02:01:01.724Z,9.66
2023-01-08T02:03:30.394Z,9.68
2023-01-08T02:05:57.783Z,9.72
2023-01-08T02:08:40.701Z,9.69
2023-01-08T02:11:12.030Z,8.36
2023-01-08T02:13:39.991Z,9.18
2023-01-08T02:16:09.623Z,9.52
2023-01-08T02:18:36.768Z,9.79
2023-01-08T02:21:09.208Z,8.84
2023-01-08T02:23:57.138Z,9.66
2023-01-08T02:26:24.543Z,9.46
2023-01-08T02:29:01.253Z,8.83
2023-01-08T02:31:28.726Z,9.65
2023-01-08T02:33:56.161Z,8.71
2023-01-08T02:36:34.092Z,9.68
2023-01-08T02:39:04.861Z,9.38
2023-01-08T02:41:34.858Z,8.53
2023-01-08T02:44:02.330Z,9.06
2023-01-08T02:46:30.094Z,9.22
2023-01-08T02:49:00.967Z,9.07
2023-01-08T02:51:29.685Z,9.48
2023-01-08T02:54:01.235Z,9.74
2023-01-08T02:56:30.151Z,9.75
2023-01-08T02:58:57.313Z,9.16
2023-01-08T03:01:24.677Z,9.15
2023-01-08T03:03:59.528Z,9.39
2023-01-08T03:06:27.308Z,8.70
2023-01-08T03:08:54.747Z,9.02
2023-01-08T03:11:22.694Z,8.53
2023-01-08T03:13:52.972Z,8.94
2023-01-08T03:16:21.951Z,8.24
2023-01-08T03:18:59.938Z,8.75
2023-01-08T03:21:27.415Z,9.16
2023-01-08T03:23:54.617Z,8.14
2023-01-08T03:26:22.449Z,8.57
2023-01-08T03:28:51.689Z,9.23
2023-01-08T03:31:18.900Z,9.66
2023-01-08T03:33:46.616Z,9.83
2023-01-08T03:36:14.559Z,10.03
2023-01-08T03:38:48.789Z,9.55
2023-01-08T03:41:18.471Z,9.86
2023-01-08T03:43:45.636Z,10.00
2023-01-08T03:46:21.089Z,9.85
2023-01-08T03:48:48.753Z,8.49
2023-01-08T03:51:15.915Z,9.30
2023-01-08T03:53:43.359Z,8.95
2023-01-08T03:56:10.787Z,9.15
2023-01-08T03:58:38.059Z,8.78
2023-01-08T04:01:05.278Z,9.57
2023-01-08T04:03:32.717Z,10.15
2023-01-08T04:06:00.459Z,9.34
2023-01-08T04:08:27.679Z,8.91
2023-01-08T04:10:55.097Z,9.57
2023-01-08T04:13:22.254Z,9.13
2023-01-08T04:15:50.124Z,10.13
2023-01-08T04:18:17.911Z,9.50
2023-01-08T04:20:45.476Z,9.12
2023-01-08T04:23:12.852Z,9.35
2023-01-08T04:25:40.454Z,9.17
2023-01-08T04:28:08.096Z,9.05
2023-01-08T04:30:35.287Z,9.22
2023-01-08T04:33:02.787Z,9.03
2023-01-08T04:35:29.965Z,9.48
2023-01-08T04:37:57.163Z,10.12
2023-01-08T04:40:24.679Z,10.14
2023-01-08T04:42:51.835Z,9.73
2023-01-08T04:45:19.092Z,10.22
2023-01-08T04:47:46.556Z,10.08
2023-01-08T04:50:13.795Z,9.96
2023-01-08T04:52:41.033Z,9.16
2023-01-08T04:55:08.876Z,9.42
2023-01-08T04:57:36.095Z,9.89
2023-01-08T05:00:03.648Z,9.83
2023-01-08T05:02:31.197Z,9.86
2023-01-08T05:04:58.672Z,9.69
2023-01-08T05:07:25.862Z,9.73
2023-01-08T05:09:53.266Z,9.28
2023-01-08T05:12:20.452Z,9.24
2023-01-08T05:14:47.677Z,8.93
2023-01-08T05:17:15.081Z,9.12
2023-01-08T05:19:42.281Z,9.70
2023-01-08T05:22:09.461Z,8.85
2023-01-08T05:24:36.928Z,9.65
2023-01-08T05:27:04.168Z,9.65
2023-01-08T05:29:31.325Z,9.89
2023-01-08T05:31:59.047Z,9.30
2023-01-08T05:34:26.243Z,9.94
2023-01-08T05:36:53.492Z,9.48
2023-01-08T05:39:20.889Z,9.09
2023-01-08T05:41:48.189Z,9.82
2023-01-08T05:44:15.412Z,9.48
2023-01-08T05:46:42.867Z,9.53
2023-01-08T05:49:10.049Z,9.87
2023-01-08T05:51:37.205Z,9.61
2023-01-08T05:54:04.642Z,9.55
2023-01-08T05:56:31.786Z,9.60
2023-01-08T05:58:58.993Z,9.26
2023-01-08T06:01:26.477Z,8.77
2023-01-08T06:03:56.870Z,9.58
2023-01-08T06:06:24.076Z,9.72
2023-01-08T06:08:51.255Z,9.26
2023-01-08T06:11:18.709Z,8.83
2023-01-08T06:13:45.940Z,9.00
2023-01-08T06:16:13.284Z,9.15
2023-01-08T06:18:40.822Z,9.09
2023-01-08T06:21:07.974Z,9.46
2023-01-08T06:23:35.161Z,9.73
2023-01-08T06:26:04.240Z,9.56
2023-01-08T06:28:31.769Z,9.39
2023-01-08T06:30:59.670Z,9.40
2023-01-08T06:33:27.162Z,8.50
2023-01-08T06:35:54.478Z,9.13
2023-01-08T06:38:21.811Z,9.20
2023-01-08T06:40:49.260Z,9.52
2023-01-08T06:43:17.716Z,9.52
2023-01-08T06:45:45.094Z,9.03
2023-01-08T06:48:12.530Z,9.36
2023-01-08T06:50:39.751Z,9.18
2023-01-08T06:53:06.879Z,9.74
2023-01-08T06:55:34.324Z,9.63
2023-01-08T06:58:01.495Z,9.40
2023-01-08T07:00:28.684Z,9.83
2023-01-08T07:02:56.323Z,10.00
2023-01-08T07:05:23.570Z,9.73
2023-01-08T07:07:50.765Z,9.80
2023-01-08T07:10:20.036Z,9.92
2023-01-08T07:12:47.736Z,9.33
2023-01-08T07:15:15.063Z,9.79
2023-01-08T07:17:42.528Z,9.16
2023-01-08T07:20:09.891Z,9.91
2023-01-08T07:22:37.074Z,9.76
2023-01-08T07:25:05.361Z,9.08
2023-01-08T07:27:32.652Z,8.89
2023-01-08T07:29:59.789Z,9.65
2023-01-08T07:32:27.203Z,9.84
2023-01-08T07:34:54.763Z,9.45
2023-01-08T07:37:21.998Z,9.69
2023-01-08T07:39:49.480Z,8.75
2023-01-08T07:42:16.626Z,9.55
2023-01-08T07:44:44.020Z,9.53
2023-01-08T07:47:11.412Z,9.65
2023-01-08T07:49:38.605Z,9.55
2023-01-08T07:52:05.784Z,9.22
2023-01-08T07:54:33.241Z,9.78
2023-01-08T07:57:00.429Z,9.37
2023-01-08T07:59:27.582Z,9.82
2023-01-08T08:01:55.112Z,9.96
2023-01-08T08:04:22.689Z,10.04
2023-01-08T08:06:50.118Z,9.88
2023-01-08T08:09:17.252Z,10.28
2023-01-08T08:11:44.685Z,9.59
2023-01-08T08:14:11.938Z,8.76
2023-01-08T08:16:39.165Z,9.18
2023-01-08T08:19:06.723Z,8.75
2023-01-08T08:21:33.857Z,9.39
2023-01-08T08:24:01.051Z,9.36
2023-01-08T08:26:28.511Z,9.73
2023-01-08T08:28:55.873Z,8.94
2023-01-08T08:31:23.249Z,8.79
2023-01-08T08:33:50.720Z,8.71
2023-01-08T08:36:17.930Z,8.45
2023-01-08T08:38:45.138Z,9.48
2023-01-08T08:41:12.606Z,9.39
2023-01-08T08:43:39.773Z,9.33
2023-01-08T08:46:07.070Z,9.65
2023-01-08T08:48:34.530Z,8.78
2023-01-08T08:51:01.743Z,9.40
2023-01-08T08:53:29.168Z,9.83
2023-01-08T08:55:58.126Z,9.82
2023-01-08T08:58:25.339Z,9.76
2023-01-08T09:00:52.490Z,9.98
2023-01-08T09:03:19.986Z,9.01
2023-01-08T09:05:47.195Z,9.47
2023-01-08T09:08:14.405Z,9.54
2023-01-08T09:10:42.566Z,9.91
2023-01-08T09:13:10.137Z,9.86
2023-01-08T09:15:37.528Z,9.09
2023-01-08T09:18:05.148Z,8.44
2023-01-08T09:20:32.368Z,9.39
2023-01-08T09:23:00.039Z,8.79
2023-01-08T09:25:27.580Z,8.03
2023-01-08T09:28:01.553Z,8.80
2023-01-08T09:30:29.082Z,9.18
2023-01-08T09:32:56.838Z,9.95
2023-01-08T09:35:23.983Z,9.76
2023-01-08T09:37:55.205Z,9.40
2023-01-08T09:40:22.934Z,10.05
2023-01-08T09:42:54.258Z,10.47
2023-01-08T09:45:28.731Z,10.88
2023-01-08T09:47:57.168Z,10.61
2023-01-08T09:50:24.729Z,9.03
2023-01-08T09:52:51.910Z,10.04
2023-01-08T09:55:19.167Z,10.10
2023-01-08T09:57:46.706Z,9.95
2023-01-08T10:00:40.510Z,10.20
2023-01-08T10:03:09.311Z,10.77
2023-01-08T10:05:36.505Z,10.61
2023-01-08T10:08:04.365Z,10.41
2023-01-08T10:10:31.953Z,10.30
2023-01-08T10:12:59.212Z,10.49
2023-01-08T10:15:26.417Z,10.61
2023-01-08T10:18:00.132Z,10.26
2023-01-08T10:20:27.607Z,10.46
2023-01-08T10:22:55.038Z,10.22
2023-01-08T10:25:26.263Z,10.63
2023-01-08T10:27:54.754Z,11.25
2023-01-08T10:30:31.104Z,12.05
2023-01-08T10:33:02.164Z,11.49
2023-01-08T10:35:31.808Z,12.99
2023-01-08T10:37:58.951Z,13.63
2023-01-08T10:40:32.329Z,14.53
2023-01-08T10:43:05.738Z,16.41
2023-01-08T10:45:33.037Z,17.32
2023-01-08T10:48:01.022Z,17.82
2023-01-08T10:50:29.744Z,16.31
2023-01-08T10:53:00.859Z,15.38
2023-01-08T10:55:29.634Z,15.67
2023-01-08T10:57:59.883Z,15.33
2023-01-08T11:00:28.776Z,13.05
2023-01-08T11:02:57.027Z,13.99
2023-01-08T11:05:31.860Z,13.11
2023-01-08T11:07:59.711Z,13.76
2023-01-08T11:10:27.347Z,12.67
2023-01-08T11:13:04.421Z,12.67
2023-01-08T11:15:33.368Z,13.12
2023-01-08T11:18:23.817Z,12.34
2023-01-08T11:20:52.204Z,12.22
2023-01-08T11:23:23.531Z,11.98
2023-01-08T11:26:02.053Z,12.37
2023-01-08T11:28:49.817Z,12.14
2023-01-08T11:31:37.253Z,11.06
2023-01-08T11:34:06.371Z,11.62
2023-01-08T11:36:34.933Z,11.55
2023-01-08T11:39:02.293Z,11.35
2023-01-08T11:41:58.718Z,11.26
2023-01-08T11:44:41.192Z,11.67
2023-01-08T11:47:15.285Z,11.69
2023-01-08T11:49:46.236Z,11.11
2023-01-08T11:52:13.493Z,10.04
2023-01-08T11:54:52.890Z,11.18
2023-01-08T11:57:38.884Z,11.51
2023-01-08T12:00:24.874Z,11.60
2023-01-08T12:02:56.152Z,11.70
2023-01-08T12:05:26.390Z,12.09
2023-01-08T12:07:53.814Z,11.82
2023-01-08T12:10:24.744Z,11.86
2023-01-08T12:13:10.913Z,11.87
2023-01-08T12:15:38.287Z,11.94
2023-01-08T12:18:08.959Z,11.59
2023-01-08T12:20:38.006Z,10.76
2023-01-08T12:23:06.216Z,11.81
2023-01-08T12:25:46.307Z,12.00
2023-01-08T12:28:13.783Z,11.97
2023-01-08T12:30:46.780Z,11.70
2023-01-08T12:33:32.609Z,12.19
2023-01-08T12:36:00.376Z,12.30
2023-01-08T12:38:32.403Z,12.03
2023-01-08T12:41:05.178Z,12.31
2023-01-08T12:43:56.066Z,12.52
2023-01-08T12:46:23.462Z,12.75
2023-01-08T12:48:51.983Z,12.61
2023-01-08T12:51:31.930Z,12.88
2023-01-08T12:54:22.899Z,12.92
2023-01-08T12:57:02.592Z,13.02
2023-01-08T12:59:36.054Z,12.83
2023-01-08T13:02:22.232Z,13.11
2023-01-08T13:04:49.810Z,12.89
2023-01-08T13:07:20.942Z,13.01
2023-01-08T13:10:02.134Z,13.13
2023-01-08T13:12:36.236Z,13.15
2023-01-08T13:15:03.959Z,12.49
2023-01-08T13:17:31.507Z,12.71
2023-01-08T13:20:02.262Z,12.53
2023-01-08T13:22:29.620Z,12.42
2023-01-08T13:25:10.460Z,13.12
2023-01-08T13:27:37.610Z,13.34
2023-01-08T13:30:24.966Z,13.59
2023-01-08T13:32:52.623Z,13.13
2023-01-08T13:35:22.329Z,13.27
2023-01-08T13:37:53.177Z,13.43
2023-01-08T13:40:39.479Z,13.54
2023-01-08T13:43:10.472Z,13.30
2023-01-08T13:45:37.941Z,13.28
2023-01-08T13:48:05.418Z,13.29
2023-01-08T13:50:32.965Z,13.36
2023-01-08T13:53:03.546Z,13.43
2023-01-08T13:55:38.245Z,13.02
2023-01-08T13:58:08.034Z,13.14
2023-01-08T14:00:38.830Z,13.32
2023-01-08T14:03:06.358Z,13.49
2023-01-08T14:05:37.012Z,13.50
2023-01-08T14:08:04.305Z,13.52
2023-01-08T14:10:31.781Z,13.55
2023-01-08T14:13:06.421Z,13.24
2023-01-08T14:15:34.032Z,13.48
2023-01-08T14:18:01.569Z,13.66
2023-01-08T14:20:33.027Z,13.26
2023-01-08T14:23:01.216Z,13.76
2023-01-08T14:25:28.522Z,13.61
2023-01-08T14:28:00.179Z,13.34
2023-01-08T14:30:27.919Z,13.36
2023-01-08T14:32:56.138Z,13.74
2023-01-08T14:35:26.808Z,12.75
2023-01-08T14:37:54.269Z,12.28
2023-01-08T14:40:32.138Z,12.76
2023-01-08T14:43:01.766Z,12.18
2023-01-08T14:45:29.744Z,12.83
2023-01-08T14:48:00.337Z,12.47
2023-01-08T14:50:28.675Z,12.21
2023-01-08T14:53:08.940Z,12.54
2023-01-08T14:55:37.449Z,12.05
2023-01-08T14:58:04.769Z,12.61
2023-01-08T15:00:32.055Z,12.20
2023-01-08T15:02:59.629Z,12.89
2023-01-08T15:05:28.476Z,12.75
2023-01-08T15:07:57.312Z,12.65
2023-01-08T15:10:30.598Z,12.00
2023-01-08T15:13:00.287Z,11.98
2023-01-08T15:15:28.065Z,12.18
2023-01-08T15:17:55.306Z,12.05
2023-01-08T15:20:22.680Z,12.13
2023-01-08T15:22:50.510Z,12.02
2023-01-08T15:25:35.885Z,12.48
2023-01-08T15:28:04.551Z,12.24
2023-01-08T15:30:33.976Z,12.56
2023-01-08T15:33:08.319Z,13.05
2023-01-08T15:35:35.853Z,12.55
2023-01-08T15:38:03.172Z,12.21
2023-01-08T15:40:30.413Z,12.75
2023-01-08T15:43:09.903Z,12.48
2023-01-08T15:45:38.296Z,12.53
2023-01-08T15:48:06.085Z,12.02
2023-01-08T15:50:36.711Z,12.06
2023-01-08T15:53:08.584Z,13.48
2023-01-08T15:55:37.582Z,13.82
2023-01-08T15:58:04.914Z,13.92
2023-01-08T16:00:32.297Z,13.56
2023-01-08T16:03:00.056Z,13.80
2023-01-08T16:05:28.916Z,13.88
2023-01-08T16:07:56.314Z,13.80
2023-01-08T16:10:24.844Z,13.68
2023-01-08T16:12:52.450Z,13.30
2023-01-08T16:15:19.683Z,13.32
2023-01-08T16:17:47.213Z,13.24
2023-01-08T16:20:14.669Z,13.65
2023-01-08T16:22:41.957Z,13.28
2023-01-08T16:25:09.888Z,13.26
2023-01-08T16:27:38.416Z,13.53
2023-01-08T16:30:06.982Z,13.79
2023-01-08T16:32:34.573Z,12.80
2023-01-08T16:35:01.820Z,12.92
2023-01-08T16:37:30.397Z,12.50
2023-01-08T16:39:57.921Z,13.49
2023-01-08T16:42:25.194Z,13.86
2023-01-08T16:44:52.443Z,13.77
2023-01-08T16:47:20.012Z,13.81
2023-01-08T16:49:50.307Z,13.05
2023-01-08T16:52:17.635Z,13.67
2023-01-08T16:54:45.368Z,13.87
2023-01-08T16:57:12.769Z,13.84
2023-01-08T16:59:39.955Z,13.62
2023-01-08T17:02:08.757Z,13.78
2023-01-08T17:04:36.046Z,13.90
2023-01-08T17:07:03.378Z,13.99
2023-01-08T17:09:30.976Z,13.69
2023-01-08T17:11:58.158Z,13.91
2023-01-08T17:14:25.651Z,14.00
2023-01-08T17:16:53.194Z,14.11
2023-01-08T17:19:20.753Z,14.08
2023-01-08T17:21:50.226Z,14.12
2023-01-08T17:24:17.814Z,14.30
2023-01-08T17:26:45.054Z,14.43
2023-01-08T17:29:12.330Z,14.18
2023-01-08T17:31:40.334Z,14.16
2023-01-08T17:34:08.526Z,14.35
2023-01-08T17:36:36.291Z,14.26
2023-01-08T17:39:03.947Z,14.03
2023-01-08T17:41:50.126Z,14.18
2023-01-08T17:44:17.681Z,14.09
2023-01-08T17:46:48.125Z,14.18
2023-01-08T17:49:15.808Z,14.10
2023-01-08T17:51:43.635Z,13.90
2023-01-08T17:54:12.000Z,14.04
2023-01-08T17:56:39.469Z,14.25
2023-01-08T17:59:07.149Z,14.41
2023-01-08T18:01:35.175Z,13.97
2023-01-08T18:04:03.169Z,14.29
2023-01-08T18:06:30.549Z,14.28
2023-01-08T18:09:00.247Z,14.36
2023-01-08T18:11:27.829Z,14.50
2023-01-08T18:13:58.580Z,14.34
2023-01-08T18:16:26.138Z,14.55
2023-01-08T18:18:53.660Z,14.61
2023-01-08T18:21:20.889Z,14.68
2023-01-08T18:23:48.253Z,13.91
2023-01-08T18:26:16.734Z,14.41
2023-01-08T18:28:44.390Z,14.36
2023-01-08T18:31:11.663Z,14.44
2023-01-08T18:33:39.601Z,13.34
2023-01-08T18:36:09.408Z,13.60
2023-01-08T18:38:38.082Z,12.60
2023-01-08T18:41:05.856Z,13.26
2023-01-08T18:43:35.482Z,13.82
2023-01-08T18:46:04.679Z,13.24
2023-01-08T18:48:32.960Z,12.90
2023-01-08T18:51:07.447Z,12.93
2023-01-08T18:53:35.064Z,13.02
2023-01-08T18:56:02.402Z,13.63
2023-01-08T18:58:29.623Z,13.62
2023-01-08T19:01:02.069Z,13.00
2023-01-08T19:03:29.293Z,13.36
2023-01-08T19:05:57.060Z,13.56
2023-01-08T19:08:24.477Z,12.81
2023-01-08T19:10:51.776Z,12.14
2023-01-08T19:13:19.377Z,12.15
2023-01-08T19:15:47.032Z,12.52
2023-01-08T19:18:14.425Z,12.28
2023-01-08T19:20:43.431Z,12.07
2023-01-08T19:23:10.762Z,11.86
2023-01-08T19:25:41.549Z,11.54
2023-01-08T19:28:08.991Z,11.30
2023-01-08T19:30:37.574Z,11.56
2023-01-08T19:33:04.948Z,11.25
2023-01-08T19:35:32.584Z,11.27
2023-01-08T19:37:59.871Z,11.45
2023-01-08T19:40:27.221Z,11.49
2023-01-08T19:43:13.452Z,11.75
2023-01-08T19:45:40.830Z,11.77
2023-01-08T19:48:08.580Z,11.40
2023-01-08T19:50:39.170Z,11.33
2023-01-08T19:53:06.493Z,11.91
2023-01-08T19:55:37.346Z,11.75
2023-01-08T19:58:04.631Z,11.31
2023-01-08T20:00:38.942Z,11.72
2023-01-08T20:03:06.874Z,11.06
2023-01-08T20:05:34.187Z,11.35
2023-01-08T20:08:01.607Z,11.39
2023-01-08T20:10:29.313Z,11.56
2023-01-08T20:12:56.552Z,11.64
2023-01-08T20:15:24.997Z,11.12
2023-01-08T20:17:52.683Z,11.10
2023-01-08T20:20:20.071Z,11.52
2023-01-08T20:22:48.516Z,11.60
2023-01-08T20:25:16.053Z,11.35
2023-01-08T20:27:43.261Z,11.26
2023-01-08T20:30:10.908Z,11.33
2023-01-08T20:32:39.661Z,11.42
2023-01-08T20:35:07.152Z,11.30
2023-01-08T20:37:34.549Z,10.84
2023-01-08T20:40:02.160Z,11.19
2023-01-08T20:42:34.147Z,11.20
2023-01-08T20:45:02.165Z,11.33
2023-01-08T20:47:29.477Z,10.94
2023-01-08T20:49:56.707Z,11.15
2023-01-08T20:52:24.346Z,10.99
2023-01-08T20:54:53.037Z,11.40
2023-01-08T20:57:20.240Z,11.46
2023-01-08T20:59:47.943Z,11.56
2023-01-08T21:02:15.184Z,11.36
2023-01-08T21:04:43.836Z,10.94
2023-01-08T21:07:11.397Z,10.54
2023-01-08T21:09:40.314Z,10.74
2023-01-08T21:12:08.150Z,10.72
2023-01-08T21:14:35.814Z,10.92
2023-01-08T21:17:03.043Z,10.42
2023-01-08T21:19:30.258Z,10.45
2023-01-08T21:21:57.732Z,10.42
2023-01-08T21:24:24.968Z,10.73
2023-01-08T21:26:52.191Z,11.08
2023-01-08T21:29:20.948Z,11.11
2023-01-08T21:31:48.299Z,11.24
2023-01-08T21:34:15.511Z,11.38
2023-01-08T21:36:42.931Z,11.23
2023-01-08T21:39:10.425Z,11.73
2023-01-08T21:41:56.361Z,11.69
2023-01-08T21:44:43.687Z,11.18
2023-01-08T21:47:12.292Z,11.24
2023-01-08T21:49:39.833Z,10.94
2023-01-08T21:52:25.868Z,11.54
2023-01-08T21:54:53.887Z,11.57
2023-01-08T21:57:21.162Z,11.24
2023-01-08T21:59:49.259Z,11.56
2023-01-08T22:02:17.424Z,11.64
2023-01-08T22:04:44.991Z,11.80
2023-01-08T22:07:12.197Z,11.76
2023-01-08T22:09:39.449Z,11.54
2023-01-08T22:12:07.401Z,12.37
2023-01-08T22:14:34.902Z,12.92
2023-01-08T22:17:04.191Z,13.01
2023-01-08T22:19:31.780Z,13.37
2023-01-08T22:21:59.246Z,13.48
2023-01-08T22:24:26.549Z,13.33
2023-01-08T22:26:54.183Z,13.67
2023-01-08T22:29:21.373Z,12.91
2023-01-08T22:31:48.599Z,12.95
2023-01-08T22:34:17.585Z,13.28
2023-01-08T22:36:51.121Z,12.79
2023-01-08T22:39:18.703Z,13.28
2023-01-08T22:41:45.861Z,13.45
2023-01-08T22:44:13.093Z,13.46
2023-01-08T22:46:40.711Z,13.65
2023-01-08T22:49:09.501Z,13.56
2023-01-08T22:51:36.729Z,12.94
2023-01-08T22:54:04.209Z,13.57
2023-01-08T22:56:31.478Z,12.72
2023-01-08T22:58:58.722Z,13.14
2023-01-08T23:01:27.510Z,13.50
2023-01-08T23:03:56.058Z,13.07
2023-01-08T23:06:23.454Z,13.19
2023-01-08T23:08:51.028Z,13.27
2023-01-08T23:11:18.746Z,13.54
2023-01-08T23:13:46.123Z,13.77
2023-01-08T23:16:14.950Z,13.52
2023-01-08T23:18:42.284Z,13.87
2023-01-08T23:21:10.823Z,13.93
2023-01-08T23:23:38.356Z,13.93
2023-01-08T23:26:06.697Z,13.92
2023-01-08T23:28:34.114Z,13.95
2023-01-08T23:31:01.546Z,13.89
2023-01-08T23:33:28.742Z,13.85
2023-01-08T23:35:55.904Z,13.79
2023-01-08T23:38:23.336Z,13.85
2023-01-08T23:40:50.567Z,13.59
2023-01-08T23:43:17.768Z,13.62
2023-01-08T23:45:45.304Z,13.58
2023-01-08T23:48:12.581Z,13.56
2023-01-08T23:50:39.870Z,13.69
2023-01-08T23:53:07.327Z,13.39
2023-01-08T23:55:34.519Z,13.64
2023-01-08T23:58:01.733Z,13.63
